createdAt,value
2018-12-24T00:01:59.489Z,11.00
2018-12-24T00:04:29.073Z,11.00
2018-12-24T00:07:00.108Z,10.90
2018-12-24T00:09:30.387Z,10.90
2018-12-24T00:12:06.798Z,10.90
2018-12-24T00:14:28.771Z,10.90
2018-12-24T00:16:57.173Z,10.90
2018-12-24T00:19:25.547Z,10.90
2018-12-24T00:21:53.963Z,11.00
2018-12-24T00:24:22.319Z,11.00
2018-12-24T00:26:51.016Z,11.00
2018-12-24T00:29:21.032Z,11.00
2018-12-24T00:31:49.427Z,11.00
2018-12-24T00:34:18.943Z,10.90
2018-12-24T00:36:48.435Z,11.00
2018-12-24T00:39:16.832Z,11.00
2018-12-24T00:41:45.202Z,11.00
2018-12-24T00:44:13.704Z,11.00
2018-12-24T00:46:42.080Z,11.00
2018-12-24T00:49:10.480Z,11.00
2018-12-24T00:51:38.928Z,11.00
2018-12-24T00:54:07.699Z,11.00
2018-12-24T00:56:36.099Z,11.00
2018-12-24T00:59:07.382Z,11.00
2018-12-24T01:01:35.757Z,11.00
2018-12-24T01:04:06.160Z,11.00
2018-12-24T01:06:34.612Z,10.90
2018-12-24T01:09:04.274Z,11.00
2018-12-24T01:11:32.812Z,11.00
2018-12-24T01:14:01.179Z,11.00
2018-12-24T01:16:29.711Z,10.90
2018-12-24T01:18:58.088Z,11.00
2018-12-24T01:21:26.485Z,10.90
2018-12-24T01:23:54.868Z,10.90
2018-12-24T01:26:23.354Z,10.90
2018-12-24T01:28:52.036Z,10.90
2018-12-24T01:31:20.418Z,10.90
2018-12-24T01:33:49.787Z,10.80
2018-12-24T01:36:18.324Z,10.80
2018-12-24T01:38:46.812Z,10.80
2018-12-24T01:41:15.218Z,10.80
2018-12-24T01:43:43.598Z,10.70
2018-12-24T01:46:11.992Z,10.70
2018-12-24T01:48:40.423Z,10.70
2018-12-24T01:51:08.823Z,10.60
2018-12-24T01:53:37.275Z,10.60
2018-12-24T01:56:05.663Z,10.60
2018-12-24T01:58:35.267Z,10.60
2018-12-24T02:01:03.688Z,10.60
2018-12-24T02:03:32.055Z,10.50
2018-12-24T02:06:00.434Z,10.50
2018-12-24T02:08:29.148Z,10.50
2018-12-24T02:10:57.515Z,10.50
2018-12-24T02:13:25.916Z,10.40
2018-12-24T02:15:54.288Z,10.40
2018-12-24T02:18:22.684Z,10.40
2018-12-24T02:20:51.163Z,10.40
2018-12-24T02:23:19.551Z,10.30
2018-12-24T02:25:47.915Z,10.40
2018-12-24T02:28:16.310Z,10.30
2018-12-24T02:30:44.992Z,10.40
2018-12-24T02:33:13.511Z,10.30
2018-12-24T02:35:42.231Z,10.40
2018-12-24T02:38:10.745Z,10.40
2018-12-24T02:40:39.121Z,10.40
2018-12-24T02:43:08.836Z,10.40
2018-12-24T02:45:37.218Z,10.30
2018-12-24T02:48:06.915Z,10.40
2018-12-24T02:50:35.288Z,10.30
2018-12-24T02:53:03.763Z,10.40
2018-12-24T02:55:32.166Z,10.30
2018-12-24T02:58:02.076Z,9.90
2018-12-24T03:00:30.489Z,9.40
2018-12-24T03:02:58.865Z,8.80
2018-12-24T03:05:27.244Z,8.40
2018-12-24T03:07:55.632Z,8.20
2018-12-24T03:10:24.102Z,8.10
2018-12-24T03:13:02.227Z,8.00
2018-12-24T03:15:22.960Z,8.00
2018-12-24T03:17:51.327Z,7.90
2018-12-24T03:20:19.765Z,7.90
2018-12-24T03:22:48.171Z,7.80
2018-12-24T03:25:16.802Z,7.70
2018-12-24T03:27:45.541Z,7.60
2018-12-24T03:30:15.529Z,7.60
2018-12-24T03:32:43.922Z,7.50
2018-12-24T03:35:12.297Z,7.50
2018-12-24T03:37:40.681Z,7.50
2018-12-24T03:40:09.051Z,7.50
2018-12-24T03:42:39.021Z,7.40
2018-12-24T03:45:07.387Z,7.50
2018-12-24T03:47:36.044Z,7.50
2018-12-24T03:50:04.586Z,7.50
2018-12-24T03:52:35.229Z,7.50
2018-12-24T03:55:03.852Z,7.60
2018-12-24T03:57:32.250Z,7.60
2018-12-24T04:00:00.634Z,7.60
2018-12-24T04:02:29.300Z,7.50
2018-12-24T04:04:59.304Z,7.50
2018-12-24T04:07:27.699Z,7.50
2018-12-24T04:09:56.067Z,7.50
2018-12-24T04:12:24.452Z,7.50
2018-12-24T04:14:52.820Z,7.40
2018-12-24T04:17:21.242Z,7.30
2018-12-24T04:19:51.616Z,7.40
2018-12-24T04:22:19.980Z,7.40
2018-12-24T04:24:48.686Z,7.30
2018-12-24T04:27:17.219Z,7.10
2018-12-24T04:29:45.601Z,7.00
2018-12-24T04:32:14.093Z,7.00
2018-12-24T04:34:42.573Z,6.90
2018-12-24T04:37:10.931Z,6.70
2018-12-24T04:39:39.324Z,6.70
2018-12-24T04:42:07.797Z,6.60
2018-12-24T04:44:36.173Z,6.60
2018-12-24T04:47:04.910Z,6.60
2018-12-24T04:49:33.291Z,6.60
2018-12-24T04:52:02.876Z,6.60
2018-12-24T04:54:32.903Z,6.60
2018-12-24T04:57:01.324Z,6.50
2018-12-24T04:59:29.738Z,6.60
2018-12-24T05:01:59.195Z,6.60
2018-12-24T05:04:27.590Z,6.60
2018-12-24T05:06:55.968Z,6.60
2018-12-24T05:09:24.351Z,6.70
2018-12-24T05:11:52.736Z,6.60
2018-12-24T05:14:21.498Z,6.50
2018-12-24T05:16:49.885Z,6.60
2018-12-24T05:19:18.268Z,6.50
2018-12-24T05:21:46.737Z,6.40
2018-12-24T05:24:15.494Z,6.60
2018-12-24T05:26:43.862Z,6.60
2018-12-24T05:29:14.205Z,6.40
2018-12-24T05:31:43.143Z,6.40
2018-12-24T05:34:11.501Z,6.30
2018-12-24T05:36:42.653Z,6.20
2018-12-24T05:39:11.147Z,6.20
2018-12-24T05:41:39.535Z,6.10
2018-12-24T05:44:07.903Z,6.00
2018-12-24T05:46:36.295Z,6.00
2018-12-24T05:49:04.665Z,5.90
2018-12-24T05:51:33.051Z,5.80
2018-12-24T05:54:01.432Z,5.80
2018-12-24T05:56:30.164Z,5.90
2018-12-24T05:58:58.534Z,5.90
2018-12-24T06:01:26.917Z,5.90
2018-12-24T06:03:55.288Z,5.90
2018-12-24T06:06:23.695Z,6.00
2018-12-24T06:08:53.193Z,5.90
2018-12-24T06:11:21.606Z,5.80
2018-12-24T06:13:57.785Z,5.90
2018-12-24T06:16:20.205Z,5.80
2018-12-24T06:18:48.679Z,5.90
2018-12-24T06:21:17.077Z,5.80
2018-12-24T06:23:45.504Z,5.80
2018-12-24T06:26:13.897Z,5.80
2018-12-24T06:28:42.261Z,5.80
2018-12-24T06:31:11.268Z,5.80
2018-12-24T06:33:39.908Z,5.90
2018-12-24T06:36:08.300Z,5.90
2018-12-24T06:38:36.669Z,5.80
2018-12-24T06:41:05.209Z,5.80
2018-12-24T06:43:33.615Z,5.80
2018-12-24T06:46:02.012Z,5.80
2018-12-24T06:48:30.505Z,5.70
2018-12-24T06:50:58.896Z,5.70
2018-12-24T06:53:27.269Z,5.70
2018-12-24T06:55:55.634Z,5.60
2018-12-24T06:58:25.657Z,5.70
2018-12-24T07:00:54.297Z,5.60
2018-12-24T07:03:23.815Z,5.60
2018-12-24T07:05:54.244Z,5.60
2018-12-24T07:08:22.636Z,5.60
2018-12-24T07:10:52.624Z,5.60
2018-12-24T07:13:21.096Z,5.50
2018-12-24T07:15:49.537Z,5.60
2018-12-24T07:18:17.948Z,5.60
2018-12-24T07:20:46.313Z,5.60
2018-12-24T07:23:14.699Z,5.60
2018-12-24T07:25:43.063Z,5.40
2018-12-24T07:28:11.555Z,5.50
2018-12-24T07:30:40.012Z,5.50
2018-12-24T07:33:08.514Z,5.40
2018-12-24T07:35:36.888Z,5.50
2018-12-24T07:38:05.257Z,5.40
2018-12-24T07:40:33.721Z,5.40
2018-12-24T07:43:02.083Z,5.50
2018-12-24T07:45:30.488Z,5.50
2018-12-24T07:48:00.292Z,5.50
2018-12-24T07:50:28.675Z,5.60
2018-12-24T07:52:57.044Z,5.60
2018-12-24T07:55:25.461Z,5.60
2018-12-24T07:57:53.825Z,5.60
2018-12-24T08:00:22.194Z,5.50
2018-12-24T08:02:50.603Z,5.50
2018-12-24T08:05:18.987Z,5.50
2018-12-24T08:07:47.455Z,5.50
2018-12-24T08:10:15.835Z,5.50
2018-12-24T08:12:44.228Z,5.40
2018-12-24T08:15:12.596Z,5.50
2018-12-24T08:17:42.256Z,5.50
2018-12-24T08:20:10.625Z,5.50
2018-12-24T08:22:39.031Z,5.50
2018-12-24T08:25:07.776Z,5.40
2018-12-24T08:27:36.651Z,5.40
2018-12-24T08:30:05.511Z,5.40
2018-12-24T08:32:33.880Z,5.40
2018-12-24T08:35:02.277Z,5.40
2018-12-24T08:37:30.716Z,5.30
2018-12-24T08:39:59.109Z,5.30
2018-12-24T08:42:27.467Z,5.40
2018-12-24T08:44:55.862Z,5.40
2018-12-24T08:47:24.264Z,5.30
2018-12-24T08:49:52.648Z,5.30
2018-12-24T08:52:21.115Z,5.40
2018-12-24T08:54:50.525Z,5.50
2018-12-24T08:57:18.901Z,5.50
2018-12-24T08:59:47.280Z,5.50
2018-12-24T09:02:15.668Z,5.60
2018-12-24T09:04:44.034Z,5.70
2018-12-24T09:07:13.951Z,5.80
2018-12-24T09:09:42.313Z,5.70
2018-12-24T09:12:10.737Z,5.80
2018-12-24T09:14:39.095Z,5.70
2018-12-24T09:17:07.459Z,5.70
2018-12-24T09:19:36.175Z,5.80
2018-12-24T09:22:04.536Z,5.70
2018-12-24T09:24:33.008Z,5.80
2018-12-24T09:27:01.383Z,5.80
2018-12-24T09:29:29.790Z,5.80
2018-12-24T09:31:58.168Z,5.70
2018-12-24T09:34:27.264Z,5.80
2018-12-24T09:36:56.643Z,5.70
2018-12-24T09:39:25.031Z,5.70
2018-12-24T09:41:54.480Z,5.80
2018-12-24T09:44:22.859Z,5.80
2018-12-24T09:46:51.238Z,6.00
2018-12-24T09:49:19.603Z,5.90
2018-12-24T09:51:49.182Z,6.00
2018-12-24T09:54:17.549Z,6.00
2018-12-24T09:56:45.984Z,6.00
2018-12-24T09:59:14.362Z,6.00
2018-12-24T10:01:42.756Z,6.00
2018-12-24T10:04:13.521Z,6.00
2018-12-24T10:06:42.616Z,6.00
2018-12-24T10:09:10.982Z,6.10
2018-12-24T10:11:39.371Z,6.20
2018-12-24T10:14:07.750Z,6.30
2018-12-24T10:16:36.134Z,6.30
2018-12-24T10:19:04.563Z,6.20
2018-12-24T10:21:33.923Z,6.30
2018-12-24T10:24:02.487Z,6.40
2018-12-24T10:26:32.341Z,6.50
2018-12-24T10:29:00.728Z,6.60
2018-12-24T10:31:29.107Z,6.60
2018-12-24T10:33:57.483Z,6.70
2018-12-24T10:36:25.854Z,6.80
2018-12-24T10:38:54.270Z,6.70
2018-12-24T10:41:22.724Z,6.80
2018-12-24T10:43:51.117Z,6.70
2018-12-24T10:46:19.485Z,6.80
2018-12-24T10:48:48.044Z,6.90
2018-12-24T10:51:16.401Z,7.00
2018-12-24T10:53:44.779Z,6.90
2018-12-24T10:56:13.190Z,7.00
2018-12-24T10:58:43.251Z,7.10
2018-12-24T11:01:11.863Z,7.20
2018-12-24T11:03:41.675Z,7.40
2018-12-24T11:06:10.079Z,7.70
2018-12-24T11:08:39.462Z,8.00
2018-12-24T11:11:07.996Z,8.10
2018-12-24T11:13:36.465Z,8.20
2018-12-24T11:16:04.982Z,8.30
2018-12-24T11:18:33.347Z,8.30
2018-12-24T11:21:01.831Z,8.10
2018-12-24T11:23:30.276Z,7.90
2018-12-24T11:25:59.024Z,8.00
2018-12-24T11:28:28.455Z,7.90
2018-12-24T11:30:56.845Z,7.60
2018-12-24T11:33:25.210Z,7.50
2018-12-24T11:35:53.589Z,7.10
2018-12-24T11:38:21.974Z,7.10
2018-12-24T11:40:50.476Z,7.00
2018-12-24T11:43:18.872Z,6.90
2018-12-24T11:45:47.400Z,6.70
2018-12-24T11:48:15.768Z,6.80
2018-12-24T11:50:44.398Z,6.70
2018-12-24T11:53:12.937Z,6.70
2018-12-24T11:55:41.282Z,6.90
2018-12-24T11:58:13.299Z,6.90
2018-12-24T12:00:39.695Z,6.90
2018-12-24T12:03:08.189Z,7.10
2018-12-24T12:05:36.569Z,6.50
2018-12-24T12:08:04.975Z,6.30
2018-12-24T12:10:33.332Z,6.80
2018-12-24T12:13:02.024Z,7.60
2018-12-24T12:15:30.432Z,8.50
2018-12-24T12:17:58.885Z,9.40
2018-12-24T12:20:27.335Z,9.80
2018-12-24T12:22:55.747Z,9.80
2018-12-24T12:25:24.514Z,9.40
2018-12-24T12:27:52.907Z,9.30
2018-12-24T12:30:21.415Z,8.80
2018-12-24T12:32:49.778Z,8.50
2018-12-24T12:35:18.143Z,8.30
2018-12-24T12:37:46.601Z,8.10
2018-12-24T12:40:14.991Z,7.90
2018-12-24T12:42:43.379Z,7.60
2018-12-24T12:45:11.744Z,7.30
2018-12-24T12:47:40.145Z,7.10
2018-12-24T12:50:08.568Z,6.90
2018-12-24T12:52:36.960Z,6.60
2018-12-24T12:55:05.987Z,6.50
2018-12-24T12:57:34.391Z,6.30
2018-12-24T13:00:02.843Z,6.30
2018-12-24T13:02:31.211Z,6.40
2018-12-24T13:05:00.907Z,6.40
2018-12-24T13:07:29.191Z,6.40
2018-12-24T13:09:57.756Z,6.40
2018-12-24T13:12:26.176Z,6.30
2018-12-24T13:14:56.497Z,6.40
2018-12-24T13:17:24.576Z,6.40
2018-12-24T13:19:53.564Z,6.40
2018-12-24T13:22:23.379Z,6.40
2018-12-24T13:24:51.759Z,6.50
2018-12-24T13:27:20.129Z,6.60
2018-12-24T13:29:48.662Z,6.40
2018-12-24T13:32:17.145Z,6.60
2018-12-24T13:34:46.016Z,6.60
2018-12-24T13:37:14.412Z,6.60
2018-12-24T13:39:42.826Z,6.60
2018-12-24T13:42:11.215Z,6.40
2018-12-24T13:44:39.620Z,6.30
2018-12-24T13:47:08.020Z,6.20
2018-12-24T13:49:36.392Z,6.10
2018-12-24T13:52:04.839Z,5.90
2018-12-24T13:54:33.384Z,5.80
2018-12-24T13:57:01.756Z,5.60
2018-12-24T13:59:31.557Z,5.60
2018-12-24T14:02:00.075Z,5.50
2018-12-24T14:04:28.459Z,5.20
2018-12-24T14:06:56.824Z,5.10
2018-12-24T14:09:25.213Z,5.10
2018-12-24T14:11:53.571Z,5.20
2018-12-24T14:14:21.965Z,5.10
2018-12-24T14:16:50.359Z,5.20
2018-12-24T14:19:18.764Z,5.20
2018-12-24T14:21:47.477Z,5.20
2018-12-24T14:24:15.889Z,5.20
2018-12-24T14:26:44.266Z,5.20
2018-12-24T14:29:12.633Z,5.30
2018-12-24T14:31:41.019Z,5.30
2018-12-24T14:34:11.029Z,5.10
2018-12-24T14:36:39.412Z,5.00
2018-12-24T14:39:07.894Z,5.00
2018-12-24T14:41:36.243Z,4.80
2018-12-24T14:44:04.679Z,4.80
2018-12-24T14:46:33.070Z,4.80
2018-12-24T14:49:01.454Z,4.80
2018-12-24T14:51:29.843Z,4.40
2018-12-24T14:53:58.230Z,4.50
2018-12-24T14:56:26.643Z,4.40
2018-12-24T14:58:55.038Z,4.30
2018-12-24T15:01:24.427Z,4.50
2018-12-24T15:03:52.825Z,4.60
2018-12-24T15:06:21.289Z,4.60
2018-12-24T15:08:49.684Z,4.60
2018-12-24T15:11:18.043Z,4.60
2018-12-24T15:13:46.740Z,4.70
2018-12-24T15:16:15.391Z,4.70
2018-12-24T15:18:43.801Z,4.70
2018-12-24T15:21:12.178Z,4.70
2018-12-24T15:23:40.606Z,4.60
2018-12-24T15:26:08.997Z,4.50
2018-12-24T15:28:37.367Z,4.50
2018-12-24T15:31:05.762Z,4.60
2018-12-24T15:33:34.128Z,4.50
2018-12-24T15:36:02.526Z,4.60
2018-12-24T15:38:30.891Z,4.30
2018-12-24T15:41:00.974Z,4.30
2018-12-24T15:43:29.393Z,4.20
2018-12-24T15:45:57.797Z,4.30
2018-12-24T15:48:26.168Z,4.30
2018-12-24T15:50:54.585Z,4.40
2018-12-24T15:53:22.979Z,4.50
2018-12-24T15:55:51.376Z,4.70
2018-12-24T15:58:19.743Z,4.80
2018-12-24T16:00:49.767Z,4.90
2018-12-24T16:03:18.175Z,4.90
2018-12-24T16:05:46.555Z,4.90
2018-12-24T16:08:14.923Z,4.90
2018-12-24T16:10:43.324Z,4.80
2018-12-24T16:13:11.693Z,4.70
2018-12-24T16:15:40.059Z,4.70
2018-12-24T16:18:08.740Z,4.60
2018-12-24T16:20:37.400Z,4.50
2018-12-24T16:23:05.795Z,4.60
2018-12-24T16:25:34.155Z,4.70
2018-12-24T16:28:03.859Z,4.60
2018-12-24T16:30:32.244Z,4.50
2018-12-24T16:33:02.287Z,4.40
2018-12-24T16:35:30.667Z,4.20
2018-12-24T16:37:59.118Z,4.00
2018-12-24T16:40:27.508Z,4.00
2018-12-24T16:42:55.901Z,4.10
2018-12-24T16:45:24.263Z,4.10
2018-12-24T16:47:52.659Z,4.20
2018-12-24T16:50:21.031Z,4.30
2018-12-24T16:52:49.692Z,4.30
2018-12-24T16:55:18.084Z,4.30
2018-12-24T16:57:47.320Z,4.40
2018-12-24T17:00:16.316Z,4.50
2018-12-24T17:02:46.675Z,4.50
2018-12-24T17:05:14.733Z,4.50
2018-12-24T17:07:43.449Z,4.60
2018-12-24T17:10:12.379Z,4.60
2018-12-24T17:12:40.826Z,4.60
2018-12-24T17:15:09.149Z,4.70
2018-12-24T17:17:37.544Z,4.70
2018-12-24T17:20:06.964Z,4.70
2018-12-24T17:22:35.415Z,4.70
2018-12-24T17:25:03.811Z,4.50
2018-12-24T17:27:32.269Z,4.50
2018-12-24T17:30:00.748Z,4.60
2018-12-24T17:32:29.107Z,4.60
2018-12-24T17:34:57.495Z,4.60
2018-12-24T17:37:25.859Z,4.70
2018-12-24T17:39:54.247Z,4.70
2018-12-24T17:42:22.625Z,4.80
2018-12-24T17:44:51.310Z,4.80
2018-12-24T17:47:19.678Z,4.70
2018-12-24T17:49:48.161Z,4.80
2018-12-24T17:52:16.568Z,4.90
2018-12-24T17:54:44.945Z,4.80
2018-12-24T17:57:13.340Z,4.80
2018-12-24T17:59:41.719Z,4.90
2018-12-24T18:02:10.120Z,4.90
2018-12-24T18:04:38.486Z,4.90
2018-12-24T18:07:06.867Z,4.70
2018-12-24T18:09:35.246Z,4.80
2018-12-24T18:12:03.636Z,4.80
2018-12-24T18:14:33.352Z,4.80
2018-12-24T18:17:01.744Z,4.90
2018-12-24T18:19:30.107Z,4.90
2018-12-24T18:21:58.504Z,4.90
2018-12-24T18:24:26.875Z,4.80
2018-12-24T18:26:55.268Z,4.80
2018-12-24T18:29:23.648Z,4.80
2018-12-24T18:31:52.064Z,4.70
2018-12-24T18:34:20.436Z,4.70
2018-12-24T18:36:48.825Z,4.70
2018-12-24T18:39:17.191Z,4.60
2018-12-24T18:41:45.592Z,4.70
2018-12-24T18:44:14.286Z,4.70
2018-12-24T18:46:42.673Z,4.70
2018-12-24T18:49:11.373Z,4.60
2018-12-24T18:51:39.796Z,4.60
2018-12-24T18:54:09.827Z,4.60
2018-12-24T18:56:38.225Z,4.60
2018-12-24T18:59:06.611Z,4.60
2018-12-24T19:01:35.004Z,4.60
2018-12-24T19:04:03.368Z,4.60
2018-12-24T19:06:31.760Z,4.70
2018-12-24T19:09:00.120Z,4.60
2018-12-24T19:11:30.249Z,4.60
2018-12-24T19:13:58.605Z,4.50
2018-12-24T19:16:26.971Z,4.50
2018-12-24T19:18:55.367Z,4.50
2018-12-24T19:21:23.750Z,4.40
2018-12-24T19:23:52.160Z,4.40
2018-12-24T19:26:20.525Z,4.40
2018-12-24T19:28:50.174Z,4.40
2018-12-24T19:31:18.564Z,4.50
2018-12-24T19:33:47.038Z,4.40
2018-12-24T19:36:16.900Z,4.40
2018-12-24T19:38:45.315Z,4.50
2018-12-24T19:41:13.760Z,4.50
2018-12-24T19:43:42.159Z,4.50
2018-12-24T19:46:10.534Z,4.40
2018-12-24T19:48:38.996Z,4.20
2018-12-24T19:51:07.379Z,4.30
2018-12-24T19:53:35.787Z,4.30
2018-12-24T19:56:04.236Z,4.20
2018-12-24T19:58:32.713Z,4.20
2018-12-24T20:01:01.086Z,4.20
2018-12-24T20:03:29.504Z,4.20
2018-12-24T20:05:57.968Z,4.20
2018-12-24T20:08:26.371Z,4.10
2018-12-24T20:10:54.748Z,4.10
2018-12-24T20:13:23.324Z,4.20
2018-12-24T20:15:51.993Z,4.20
2018-12-24T20:18:20.877Z,4.10
2018-12-24T20:20:49.288Z,4.00
2018-12-24T20:23:17.692Z,4.00
2018-12-24T20:25:46.204Z,4.00
2018-12-24T20:28:16.904Z,4.10
2018-12-24T20:30:45.280Z,4.20
2018-12-24T20:33:13.756Z,4.20
2018-12-24T20:35:42.241Z,4.20
2018-12-24T20:38:10.549Z,4.20
2018-12-24T20:40:38.999Z,4.20
2018-12-24T20:43:08.508Z,4.20
2018-12-24T20:45:36.944Z,4.10
2018-12-24T20:48:06.736Z,4.10
2018-12-24T20:50:35.448Z,4.10
2018-12-24T20:53:03.908Z,4.20
2018-12-24T20:55:34.825Z,4.10
2018-12-24T20:58:03.197Z,4.10
2018-12-24T21:00:31.704Z,4.20
2018-12-24T21:03:00.070Z,4.20
2018-12-24T21:05:28.453Z,4.10
2018-12-24T21:07:56.997Z,4.00
2018-12-24T21:10:25.375Z,4.20
2018-12-24T21:12:54.331Z,4.20
2018-12-24T21:15:22.845Z,4.20
2018-12-24T21:17:51.361Z,4.10
2018-12-24T21:20:19.762Z,4.10
2018-12-24T21:22:48.161Z,4.00
2018-12-24T21:25:16.790Z,4.00
2018-12-24T21:27:45.235Z,4.10
2018-12-24T21:30:13.637Z,4.00
2018-12-24T21:32:42.157Z,3.90
2018-12-24T21:35:11.049Z,3.90
2018-12-24T21:37:39.622Z,3.80
2018-12-24T21:40:08.368Z,3.70
2018-12-24T21:42:36.847Z,3.60
2018-12-24T21:45:05.632Z,3.60
2018-12-24T21:47:36.135Z,3.40
2018-12-24T21:50:05.069Z,3.30
2018-12-24T21:52:33.439Z,3.20
2018-12-24T21:55:01.840Z,3.20
2018-12-24T21:57:30.447Z,3.20
2018-12-24T21:59:58.844Z,3.10
2018-12-24T22:02:27.211Z,3.10
2018-12-24T22:04:55.713Z,3.10
2018-12-24T22:07:24.155Z,3.00
2018-12-24T22:09:52.632Z,3.00
2018-12-24T22:12:21.046Z,2.90
2018-12-24T22:14:49.415Z,2.90
2018-12-24T22:17:17.816Z,2.80
2018-12-24T22:19:46.237Z,2.80
2018-12-24T22:22:14.636Z,2.70
2018-12-24T22:24:43.117Z,2.70
2018-12-24T22:27:11.534Z,2.70
2018-12-24T22:29:39.930Z,2.70
2018-12-24T22:32:08.449Z,2.70
2018-12-24T22:34:37.197Z,2.80
2018-12-24T22:37:05.591Z,2.80
2018-12-24T22:39:33.967Z,2.80
2018-12-24T22:42:02.365Z,2.70
2018-12-24T22:44:30.736Z,2.70
2018-12-24T22:46:59.533Z,2.80
2018-12-24T22:49:27.907Z,2.80
2018-12-24T22:51:57.529Z,2.70
2018-12-24T22:54:25.912Z,2.70
2018-12-24T22:56:54.317Z,2.70
2018-12-24T22:59:22.703Z,2.70
2018-12-24T23:01:51.115Z,2.50
2018-12-24T23:04:19.520Z,2.50
2018-12-24T23:06:48.003Z,2.40
2018-12-24T23:09:16.388Z,2.30
2018-12-24T23:11:44.806Z,2.30
2018-12-24T23:14:13.215Z,2.20
2018-12-24T23:16:41.720Z,2.10
2018-12-24T23:19:10.203Z,2.20
2018-12-24T23:21:38.580Z,2.30
2018-12-24T23:24:07.074Z,2.40
2018-12-24T23:26:35.515Z,2.40
2018-12-24T23:29:03.910Z,2.40
2018-12-24T23:31:33.302Z,2.50
2018-12-24T23:34:01.708Z,2.60
2018-12-24T23:36:30.241Z,2.50
2018-12-24T23:38:58.647Z,2.60
2018-12-24T23:41:27.007Z,2.60
2018-12-24T23:43:55.399Z,2.60
2018-12-24T23:46:24.901Z,2.60
2018-12-24T23:48:57.694Z,2.70
2018-12-24T23:51:23.304Z,2.70
2018-12-24T23:53:51.696Z,2.60
2018-12-24T23:56:20.063Z,2.60
2018-12-24T23:58:48.794Z,2.60
